Have a Safe July 4th! 

Flight Track Log - Related Links

Times and Time Zones

All times are in EDT time to prevent confusion due to time zone crossing. See the N9246F flight status page for this flight to view local times or setup timezone preferences in your user account.

Time Position Orientation Groundspeed Altitude Reporting Facility
EDT Latitude Longitude Course Direction KTS MPH feet Rate Location/Type
Tue 03:10:26 PM 29.1822 -81.0542 63° Northeast 72 83 500  Level Jacksonville Center
Tue 03:10:38 PM 29.1844 -81.0492 63° Northeast 72 83 600 411 Climbing Jacksonville Center
Tue 03:11:39 PM 29.1925 -81.0300 64° Northeast 67 77 1,000 393 Climbing Jacksonville Center
Tue 03:12:40 PM 29.1900 -81.0086 98° East 88 101 1,400 443 Climbing Jacksonville Center
Tue 03:13:41 PM 29.1669 -81.0019 166° South 88 101 1,900 492 Climbing Jacksonville Center
Tue 03:14:42 PM 29.1419 -81.0003 177° South 89 102 2,400 446 Climbing Jacksonville Center
Tue 03:15:42 PM 29.1169 -80.9983 176° South 85 98 2,800 397 Climbing Jacksonville Center
Tue 03:16:43 PM 29.0964 -81.0200 223° Southwest 104 120 3,200 344 Climbing Jacksonville Center
Tue 03:19:29 PM 29.0333 -81.0667 213° Southwest 104 120 4,100 208 Climbing Orlando TRACON
Tue 03:20:34 PM 29.0167 -81.1000 240° Southwest 113 130 4,000 -48 Descending Orlando TRACON
Tue 03:21:35 PM 28.9833 -81.1167 204° Southwest 110 127 4,000  Level Orlando TRACON
Tue 03:22:35 PM 28.9500 -81.1333 204° Southwest 114 131 4,000 -95 Level Orlando TRACON
Tue 03:23:41 PM 28.9167 -81.1500 204° Southwest 121 139 3,800 -250 Descending Orlando TRACON
Tue 03:24:35 PM 28.9167 -81.1667 270° West 110 127 3,500 -350 Descending Orlando TRACON
Tue 03:25:41 PM 28.9000 -81.2000 240° Southwest 115 132 3,100 -263 Descending Orlando TRACON
Tue 03:26:29 PM 28.8833 -81.2333 240° Southwest 116 133 3,000 -50 Descending Orlando TRACON
Tue 03:27:41 PM 28.8667 -81.2667 240° Southwest 117 135 3,000  Level Orlando TRACON
Tue 03:28:41 PM 28.8500 -81.3167 249° West 121 139 3,000  Level Orlando TRACON
Tue 03:29:41 PM 28.8333 -81.3333 221° Southwest 116 133 3,000  Level Orlando TRACON
Tue 03:30:41 PM 28.8167 -81.3667 240° Southwest 116 133 3,000  Level Orlando TRACON
Tue 03:31:42 PM 28.8000 -81.4000 240° Southwest 119 137 3,000 -50 Level Orlando TRACON
Tue 03:32:42 PM 28.7833 -81.4167 221° Southwest 115 132 2,900 -263 Descending Orlando TRACON
Tue 03:33:36 PM 28.7500 -81.4333 204° Southwest 106 122 2,500 -474 Descending Orlando TRACON
Tue 03:34:36 PM 28.7333 -81.4500 221° Southwest 108 124 2,000 -250 Descending Orlando TRACON
Tue 03:35:36 PM 28.7000 -81.4667 204° Southwest 106 122 2,000  Level Orlando TRACON
Tue 03:36:48 PM 28.6667 -81.4667 180° South 105 121 2,000 -182 Level Orlando TRACON
Tue 03:37:48 PM 28.6333 -81.4667 180° South 104 120 1,600 -158 Descending Orlando TRACON
Tue 03:38:42 PM 28.6000 -81.4833 204° Southwest 107 123 1,700 50 Climbing Orlando TRACON
Tue 03:39:48 PM 28.5833 -81.4667 139° Southeast 100 115 1,700 50 Level Orlando TRACON
Tue 03:40:42 PM 28.5500 -81.4667 180° South 100 115 1,800 -52 Climbing Orlando TRACON
Tue 03:41:43 PM 28.5333 -81.4500 139° Southeast 103 119 1,600 -104 Descending Orlando TRACON
Tue 03:42:37 PM 28.5167 -81.4333 139° Southeast 89 102 1,600 -105 Level Orlando TRACON
Tue 03:43:37 PM 28.5167 -81.4000 90° East 80 92 1,400 -286 Descending Orlando TRACON
Tue 03:44:43 PM 28.5333 -81.3833 41° Northeast 70 81 1,000 -350 Descending Orlando TRACON
Tue 03:45:37 PM 28.5333 -81.3667 90° East 73 84 700 -156 Descending Orlando TRACON
Tue 03:47:55 PM 28.5500 -81.3167 90° East 60 69 500 34 Descending Orlando TRACON
Tue 03:48:31 PM 28.5500 -81.3000 90° East 73 84 800 438 Climbing Orlando TRACON
Tue 03:49:31 PM 28.5667 -81.2833 41° Northeast 81 93 1,200 333 Climbing Orlando TRACON
Tue 03:50:37 PM 28.5833 -81.2667 41° Northeast 88 101 1,500 273 Climbing Orlando TRACON

Login

Don't have an account? Register now (free) for customized features, flight alerts, and more!